QID56 EGUN-EGPK
Flight info
| Callsign | QID56 |
|---|---|
| Flight time | N/A |
| Altitude | 28000 |
| Route | NUGTU DCT LESTA/N0495F240 N601 RIBEL |
| Aircraft | B703/M-SDFGHRWY/C |
Departure
| Time | 2026-04-22 19:40 |
|---|---|
| Airport | RAF Mildenhall (EGUN) |
Arrival
| Time | N/A |
|---|---|
| Airport | Glasgow Prestwick Airport (EGPK) |
| Time | Latitude | Longitude | Altitude | Speed | Heading |
|---|---|---|---|---|---|
| 2026-04-22 19:40 | 52.29374 | 0.37738 | 13162 ft | 468 kts | 308° |
| 2026-04-22 19:40 | 52.31948 | 0.34287 | 13666 ft | 493 kts | 328° |
| 2026-04-22 19:40 | 52.35003 | 0.31504 | 14283 ft | 511 kts | 332° |
| 2026-04-22 19:40 | 52.38179 | 0.28719 | 14839 ft | 524 kts | 332° |
| 2026-04-22 19:41 | 52.41432 | 0.25876 | 15392 ft | 535 kts | 332° |
| 2026-04-22 19:41 | 52.44780 | 0.23101 | 15944 ft | 543 kts | 337° |
| 2026-04-22 19:41 | 52.48472 | 0.21688 | 16396 ft | 550 kts | 357° |
| 2026-04-22 19:41 | 52.52282 | 0.22281 | 16911 ft | 552 kts | 11° |
| 2026-04-22 19:42 | 52.56113 | 0.22946 | 17430 ft | 558 kts | 1° |
| 2026-04-22 19:42 | 52.59945 | 0.21810 | 17890 ft | 566 kts | 341° |
| 2026-04-22 19:42 | 52.63384 | 0.18658 | 18375 ft | 570 kts | 322° |
| 2026-04-22 19:42 | 52.66201 | 0.14191 | 18847 ft | 543 kts | 309° |
| 2026-04-22 19:43 | 52.68413 | 0.03771 | 19565 ft | 443 kts | 272° |
| 2026-04-22 19:43 | 52.68524 | -0.01074 | 19875 ft | 412 kts | 270° |
| 2026-04-22 19:43 | 52.68637 | -0.05786 | 20249 ft | 413 kts | 274° |
| 2026-04-22 19:44 | 52.69006 | -0.10484 | 20629 ft | 411 kts | 278° |
| 2026-04-22 19:44 | 52.69269 | -0.15217 | 21030 ft | 416 kts | 273° |
| 2026-04-22 19:44 | 52.69472 | -0.19975 | 21477 ft | 416 kts | 277° |
| 2026-04-22 19:44 | 52.69831 | -0.24751 | 21946 ft | 420 kts | 277° |
| 2026-04-22 19:45 | 52.70023 | -0.29576 | 22416 ft | 422 kts | 275° |